sensor_id;sensor_type;location;lat;lon;timestamp;P1;durP1;ratioP1;P2;durP2;ratioP2
14708;SDS011;7445;50.774;4.944;2023-01-24T08:00:57;26.53;;;20.63;;
14708;SDS011;7445;50.774;4.944;2023-01-24T08:03:23;29.40;;;22.83;;
14708;SDS011;7445;50.774;4.944;2023-01-24T08:05:49;24.27;;;19.83;;
14708;SDS011;7445;50.774;4.944;2023-01-24T08:08:15;25.70;;;21.30;;
14708;SDS011;7445;50.774;4.944;2023-01-24T08:10:40;24.30;;;20.47;;
14708;SDS011;7445;50.774;4.944;2023-01-24T08:13:07;25.30;;;21.73;;
14708;SDS011;7445;50.774;4.944;2023-01-24T08:15:32;28.60;;;22.23;;
14708;SDS011;7445;50.774;4.944;2023-01-24T08:18:00;27.37;;;22.17;;
14708;SDS011;7445;50.774;4.944;2023-01-24T08:20:27;27.93;;;22.90;;
14708;SDS011;7445;50.774;4.944;2023-01-24T08:22:56;25.83;;;20.37;;
14708;SDS011;7445;50.774;4.944;2023-01-24T08:25:21;28.97;;;23.17;;
14708;SDS011;7445;50.774;4.944;2023-01-24T08:27:47;25.30;;;22.33;;
14708;SDS011;7445;50.774;4.944;2023-01-24T08:32:42;28.50;;;23.50;;
14708;SDS011;7445;50.774;4.944;2023-01-24T08:35:08;24.63;;;21.43;;
14708;SDS011;7445;50.774;4.944;2023-01-24T08:37:33;23.60;;;20.27;;
14708;SDS011;7445;50.774;4.944;2023-01-24T08:39:59;22.37;;;19.40;;
14708;SDS011;7445;50.774;4.944;2023-01-24T08:42:25;20.17;;;18.03;;
14708;SDS011;7445;50.774;4.944;2023-01-24T08:44:51;23.57;;;19.90;;
14708;SDS011;7445;50.774;4.944;2023-01-24T08:47:17;22.93;;;19.83;;
14708;SDS011;7445;50.774;4.944;2023-01-24T08:49:43;24.17;;;20.90;;
14708;SDS011;7445;50.774;4.944;2023-01-24T08:52:09;23.63;;;19.97;;
14708;SDS011;7445;50.774;4.944;2023-01-24T08:54:34;22.33;;;19.57;;
14708;SDS011;7445;50.774;4.944;2023-01-24T08:57:01;21.03;;;17.67;;
14708;SDS011;7445;50.774;4.944;2023-01-24T08:59:34;21.20;;;18.07;;
14708;SDS011;7445;50.774;4.944;2023-01-24T09:02:01;24.20;;;20.23;;
14708;SDS011;7445;50.774;4.944;2023-01-24T09:04:31;21.43;;;18.93;;
14708;SDS011;7445;50.774;4.944;2023-01-24T09:07:07;21.10;;;18.73;;
14708;SDS011;7445;50.774;4.944;2023-01-24T09:09:39;24.40;;;20.67;;
14708;SDS011;7445;50.774;4.944;2023-01-24T09:12:05;27.27;;;22.17;;
14708;SDS011;7445;50.774;4.944;2023-01-24T09:14:30;23.77;;;20.33;;
14708;SDS011;7445;50.774;4.944;2023-01-24T09:17:06;23.13;;;20.57;;
14708;SDS011;7445;50.774;4.944;2023-01-24T09:19:33;24.60;;;20.80;;
14708;SDS011;7445;50.774;4.944;2023-01-24T09:22:01;25.67;;;20.93;;
14708;SDS011;7445;50.774;4.944;2023-01-24T09:24:29;21.03;;;17.97;;
14708;SDS011;7445;50.774;4.944;2023-01-24T09:26:54;23.33;;;18.97;;
14708;SDS011;7445;50.774;4.944;2023-01-24T09:29:20;24.70;;;19.90;;
14708;SDS011;7445;50.774;4.944;2023-01-24T09:31:53;21.67;;;19.40;;
14708;SDS011;7445;50.774;4.944;2023-01-24T09:34:20;23.73;;;18.83;;
14708;SDS011;7445;50.774;4.944;2023-01-24T09:36:49;21.07;;;18.13;;
14708;SDS011;7445;50.774;4.944;2023-01-24T09:39:15;22.07;;;19.37;;
14708;SDS011;7445;50.774;4.944;2023-01-24T09:41:46;20.60;;;18.33;;
14708;SDS011;7445;50.774;4.944;2023-01-24T09:44:39;25.73;;;20.13;;
14708;SDS011;7445;50.774;4.944;2023-01-24T09:47:20;24.57;;;19.53;;
14708;SDS011;7445;50.774;4.944;2023-01-24T09:50:03;22.30;;;18.30;;
14708;SDS011;7445;50.774;4.944;2023-01-24T09:52:36;22.90;;;18.17;;
14708;SDS011;7445;50.774;4.944;2023-01-24T09:55:42;21.90;;;18.27;;
14708;SDS011;7445;50.774;4.944;2023-01-24T10:00:43;22.77;;;18.87;;
14708;SDS011;7445;50.774;4.944;2023-01-24T10:03:22;21.23;;;18.93;;
14708;SDS011;7445;50.774;4.944;2023-01-24T10:05:50;22.67;;;19.53;;
14708;SDS011;7445;50.774;4.944;2023-01-24T10:24:39;20.60;;;18.23;;
14708;SDS011;7445;50.774;4.944;2023-01-24T10:27:18;24.30;;;21.23;;
14708;SDS011;7445;50.774;4.944;2023-01-24T10:29:54;22.57;;;18.87;;
14708;SDS011;7445;50.774;4.944;2023-01-24T10:32:32;23.87;;;20.10;;
14708;SDS011;7445;50.774;4.944;2023-01-24T10:35:01;25.10;;;19.77;;
14708;SDS011;7445;50.774;4.944;2023-01-24T10:37:37;23.53;;;20.63;;
14708;SDS011;7445;50.774;4.944;2023-01-24T10:40:14;24.60;;;20.77;;
14708;SDS011;7445;50.774;4.944;2023-01-24T10:42:41;23.23;;;20.47;;
14708;SDS011;7445;50.774;4.944;2023-01-24T10:45:21;22.80;;;19.77;;
14708;SDS011;7445;50.774;4.944;2023-01-24T10:48:45;24.70;;;20.93;;
14708;SDS011;7445;50.774;4.944;2023-01-24T10:51:13;23.63;;;20.80;;
14708;SDS011;7445;50.774;4.944;2023-01-24T10:53:41;25.00;;;21.67;;
14708;SDS011;7445;50.774;4.944;2023-01-24T10:56:09;25.20;;;21.97;;
14708;SDS011;7445;50.774;4.944;2023-01-24T11:01:18;26.63;;;22.63;;
14708;SDS011;7445;50.774;4.944;2023-01-24T11:03:49;25.40;;;22.27;;
14708;SDS011;7445;50.774;4.944;2023-01-24T11:06:24;27.37;;;23.20;;
14708;SDS011;7445;50.774;4.944;2023-01-24T11:08:53;28.80;;;21.67;;
14708;SDS011;7445;50.774;4.944;2023-01-24T11:11:27;22.70;;;20.30;;
14708;SDS011;7445;50.774;4.944;2023-01-24T11:13:55;25.80;;;22.20;;
14708;SDS011;7445;50.774;4.944;2023-01-24T11:16:27;24.43;;;21.77;;
14708;SDS011;7445;50.774;4.944;2023-01-24T11:18:58;25.10;;;22.20;;
14708;SDS011;7445;50.774;4.944;2023-01-24T11:21:26;30.17;;;23.03;;
14708;SDS011;7445;50.774;4.944;2023-01-24T11:23:59;26.40;;;23.70;;
14708;SDS011;7445;50.774;4.944;2023-01-24T11:26:26;26.60;;;23.73;;
14708;SDS011;7445;50.774;4.944;2023-01-24T11:29:00;27.70;;;22.03;;
14708;SDS011;7445;50.774;4.944;2023-01-24T11:31:32;25.20;;;22.50;;
14708;SDS011;7445;50.774;4.944;2023-01-24T11:42:55;26.13;;;21.07;;
14708;SDS011;7445;50.774;4.944;2023-01-24T11:50:45;30.40;;;23.40;;
14708;SDS011;7445;50.774;4.944;2023-01-24T11:53:43;24.80;;;22.23;;
14708;SDS011;7445;50.774;4.944;2023-01-24T11:56:31;23.87;;;20.87;;
14708;SDS011;7445;50.774;4.944;2023-01-24T12:02:23;26.77;;;23.97;;
14708;SDS011;7445;50.774;4.944;2023-01-24T12:05:24;30.93;;;26.13;;
14708;SDS011;7445;50.774;4.944;2023-01-24T12:13:51;25.63;;;22.70;;
14708;SDS011;7445;50.774;4.944;2023-01-24T12:19:39;26.27;;;21.40;;
14708;SDS011;7445;50.774;4.944;2023-01-24T12:22:14;24.03;;;20.53;;
14708;SDS011;7445;50.774;4.944;2023-01-24T12:24:43;24.00;;;21.40;;
14708;SDS011;7445;50.774;4.944;2023-01-24T12:27:16;25.30;;;22.80;;
14708;SDS011;7445;50.774;4.944;2023-01-24T12:32:38;25.60;;;21.73;;
14708;SDS011;7445;50.774;4.944;2023-01-24T12:38:11;24.27;;;21.37;;
14708;SDS011;7445;50.774;4.944;2023-01-24T12:46:11;23.53;;;21.13;;
14708;SDS011;7445;50.774;4.944;2023-01-24T12:48:50;27.87;;;23.43;;
14708;SDS011;7445;50.774;4.944;2023-01-24T12:51:42;23.40;;;20.90;;
14708;SDS011;7445;50.774;4.944;2023-01-24T12:56:54;25.93;;;21.90;;
14708;SDS011;7445;50.774;4.944;2023-01-24T12:59:25;27.07;;;24.37;;
14708;SDS011;7445;50.774;4.944;2023-01-24T13:02:05;24.23;;;21.63;;
14708;SDS011;7445;50.774;4.944;2023-01-24T13:11:24;27.33;;;24.23;;
14708;SDS011;7445;50.774;4.944;2023-01-24T13:19:00;28.20;;;23.43;;
14708;SDS011;7445;50.774;4.944;2023-01-24T13:21:52;27.53;;;23.20;;
14708;SDS011;7445;50.774;4.944;2023-01-24T13:46:08;27.93;;;22.83;;
14708;SDS011;7445;50.774;4.944;2023-01-24T13:51:41;27.70;;;24.00;;
14708;SDS011;7445;50.774;4.944;2023-01-24T14:02:59;26.37;;;23.60;;
14708;SDS011;7445;50.774;4.944;2023-01-24T14:05:58;25.83;;;22.37;;
14708;SDS011;7445;50.774;4.944;2023-01-24T14:19:59;25.97;;;23.13;;
14708;SDS011;7445;50.774;4.944;2023-01-24T14:22:31;26.67;;;23.80;;
14708;SDS011;7445;50.774;4.944;2023-01-24T14:25:17;26.17;;;22.37;;
14708;SDS011;7445;50.774;4.944;2023-01-24T14:28:02;26.43;;;22.17;;
14708;SDS011;7445;50.774;4.944;2023-01-24T14:30:55;24.67;;;21.23;;
14708;SDS011;7445;50.774;4.944;2023-01-24T14:33:32;28.40;;;24.40;;
14708;SDS011;7445;50.774;4.944;2023-01-24T14:36:35;28.07;;;25.07;;
14708;SDS011;7445;50.774;4.944;2023-01-24T14:42:14;29.60;;;24.80;;
14708;SDS011;7445;50.774;4.944;2023-01-24T14:47:19;31.77;;;25.63;;
14708;SDS011;7445;50.774;4.944;2023-01-24T14:49:49;30.17;;;27.00;;
14708;SDS011;7445;50.774;4.944;2023-01-24T14:52:26;31.93;;;28.50;;
14708;SDS011;7445;50.774;4.944;2023-01-24T14:58:28;28.57;;;24.60;;
14708;SDS011;7445;50.774;4.944;2023-01-24T15:00:59;29.70;;;26.40;;
14708;SDS011;7445;50.774;4.944;2023-01-24T15:03:48;30.03;;;25.93;;
14708;SDS011;7445;50.774;4.944;2023-01-24T15:06:18;30.43;;;27.17;;
14708;SDS011;7445;50.774;4.944;2023-01-24T15:09:00;27.50;;;24.33;;
14708;SDS011;7445;50.774;4.944;2023-01-24T15:14:30;31.50;;;26.60;;
14708;SDS011;7445;50.774;4.944;2023-01-24T15:16:59;30.80;;;25.87;;
14708;SDS011;7445;50.774;4.944;2023-01-24T15:19:25;32.07;;;26.93;;
14708;SDS011;7445;50.774;4.944;2023-01-24T15:21:54;34.13;;;25.50;;
14708;SDS011;7445;50.774;4.944;2023-01-24T15:24:27;29.10;;;25.90;;
14708;SDS011;7445;50.774;4.944;2023-01-24T15:26:56;29.47;;;26.33;;
14708;SDS011;7445;50.774;4.944;2023-01-24T15:30:30;28.03;;;24.37;;
14708;SDS011;7445;50.774;4.944;2023-01-24T15:40:52;30.37;;;26.90;;
14708;SDS011;7445;50.774;4.944;2023-01-24T15:43:39;32.53;;;27.73;;
14708;SDS011;7445;50.774;4.944;2023-01-24T15:46:28;30.60;;;26.30;;
14708;SDS011;7445;50.774;4.944;2023-01-24T16:03:34;37.57;;;27.53;;
14708;SDS011;7445;50.774;4.944;2023-01-24T16:06:00;40.80;;;30.63;;
14708;SDS011;7445;50.774;4.944;2023-01-24T16:08:29;36.43;;;30.83;;
14708;SDS011;7445;50.774;4.944;2023-01-24T16:11:00;36.27;;;29.30;;
14708;SDS011;7445;50.774;4.944;2023-01-24T16:13:49;31.83;;;27.30;;
14708;SDS011;7445;50.774;4.944;2023-01-24T16:16:34;35.97;;;30.27;;
14708;SDS011;7445;50.774;4.944;2023-01-24T16:19:04;34.10;;;29.67;;
14708;SDS011;7445;50.774;4.944;2023-01-24T16:21:44;36.80;;;29.97;;
14708;SDS011;7445;50.774;4.944;2023-01-24T16:24:10;38.50;;;30.87;;
14708;SDS011;7445;50.774;4.944;2023-01-24T16:26:41;38.43;;;33.03;;
14708;SDS011;7445;50.774;4.944;2023-01-24T16:29:14;37.20;;;31.80;;
14708;SDS011;7445;50.774;4.944;2023-01-24T16:31:54;36.57;;;29.63;;
14708;SDS011;7445;50.774;4.944;2023-01-24T16:34:20;37.83;;;29.87;;
14708;SDS011;7445;50.774;4.944;2023-01-24T16:36:46;37.07;;;31.37;;
14708;SDS011;7445;50.774;4.944;2023-01-24T16:39:16;36.30;;;30.63;;
14708;SDS011;7445;50.774;4.944;2023-01-24T16:41:44;40.67;;;31.83;;
14708;SDS011;7445;50.774;4.944;2023-01-24T16:44:14;38.30;;;31.40;;
14708;SDS011;7445;50.774;4.944;2023-01-24T16:46:46;42.30;;;33.97;;
14708;SDS011;7445;50.774;4.944;2023-01-24T16:49:13;40.33;;;33.33;;
14708;SDS011;7445;50.774;4.944;2023-01-24T16:51:39;41.77;;;33.97;;
14708;SDS011;7445;50.774;4.944;2023-01-24T16:54:04;41.97;;;34.20;;
14708;SDS011;7445;50.774;4.944;2023-01-24T16:56:30;40.07;;;32.50;;
14708;SDS011;7445;50.774;4.944;2023-01-24T16:58:56;40.13;;;32.27;;
14708;SDS011;7445;50.774;4.944;2023-01-24T17:01:21;39.43;;;32.83;;
14708;SDS011;7445;50.774;4.944;2023-01-24T17:03:51;41.80;;;33.50;;
14708;SDS011;7445;50.774;4.944;2023-01-24T17:06:19;40.87;;;32.77;;
14708;SDS011;7445;50.774;4.944;2023-01-24T17:08:49;43.63;;;32.63;;
14708;SDS011;7445;50.774;4.944;2023-01-24T17:11:19;38.47;;;33.20;;
14708;SDS011;7445;50.774;4.944;2023-01-24T17:13:47;37.43;;;33.37;;
14708;SDS011;7445;50.774;4.944;2023-01-24T17:16:13;41.73;;;32.50;;
14708;SDS011;7445;50.774;4.944;2023-01-24T17:53:20;33.75;;;30.23;;
14708;SDS011;7445;50.774;4.944;2023-01-24T17:56:34;37.33;;;33.67;;
14708;SDS011;7445;50.774;4.944;2023-01-24T17:59:01;32.90;;;29.13;;
14708;SDS011;7445;50.774;4.944;2023-01-24T18:14:15;34.67;;;28.10;;
14708;SDS011;7445;50.774;4.944;2023-01-24T18:57:39;32.90;;;29.10;;
14708;SDS011;7445;50.774;4.944;2023-01-24T19:00:12;30.03;;;26.40;;
14708;SDS011;7445;50.774;4.944;2023-01-24T19:46:41;34.47;;;29.00;;
14708;SDS011;7445;50.774;4.944;2023-01-24T20:04:48;39.10;;;32.97;;
14708;SDS011;7445;50.774;4.944;2023-01-24T20:07:17;40.03;;;32.13;;
14708;SDS011;7445;50.774;4.944;2023-01-24T20:09:51;37.50;;;32.27;;
14708;SDS011;7445;50.774;4.944;2023-01-24T20:12:19;40.03;;;32.20;;
14708;SDS011;7445;50.774;4.944;2023-01-24T20:14:49;33.77;;;29.90;;
14708;SDS011;7445;50.774;4.944;2023-01-24T20:17:30;34.43;;;30.20;;
14708;SDS011;7445;50.774;4.944;2023-01-24T20:36:24;32.30;;;28.80;;
14708;SDS011;7445;50.774;4.944;2023-01-24T20:57:16;38.43;;;33.43;;
14708;SDS011;7445;50.774;4.944;2023-01-24T21:06:07;43.13;;;33.00;;
14708;SDS011;7445;50.774;4.944;2023-01-24T21:29:08;36.60;;;30.67;;
14708;SDS011;7445;50.774;4.944;2023-01-24T21:31:34;43.23;;;33.83;;
14708;SDS011;7445;50.774;4.944;2023-01-24T21:34:21;45.33;;;37.53;;
14708;SDS011;7445;50.774;4.944;2023-01-24T21:36:47;48.77;;;37.57;;
14708;SDS011;7445;50.774;4.944;2023-01-24T21:39:48;47.63;;;42.63;;
